Terminal Aerodrome Forecast
Issued by NWS St Louis, MO

Home | Current Version | Previous Version | Text Only | Print | Product List | Glossary On
Versions: 1 2 3 4 5 6 7 8 9 10 11 12 13 14 15 16 17 18 19 20 21 22 23 24
256
FTUS43 KLSX 060853 AAA
TAFSTL
TAF AMD
KSTL 060853Z 0609/0712 14003KT P6SM BKN100
     FM061300 22007KT P6SM BKN200=

USA.gov is the U.S. government's official web portal to all federal, state and local government web resources and services.